Klar, aber dunstig
Klar, wolkenlos
Klar, wolkenlos
Klar, wolkenlos
Klar, wolkenlos
Klar, wolkenlos
Klar, wolkenlos
(°C)
10°
13°
15°
16°
16°
(°C)
10°
12°
13°
13°
NW
NNW
N
NNO
NO
O
OSO
(km/h)
4-10
4-9
4-10
5-11
3-12
4-14
5-13
(mm)
0
0
0
0
0
0
0
(%)
0
0
0
0
0
0
0

Sonnenhöhe

/ 16.7°
sun-icon
UV 3
08:07
18:29
Zunehmender Mond (144°)
15:19
06:12

METAR für Alcantarilla (LERI)

Zeit Bedingungen Temperatur/
Taupunkt
Wind Sichtweite Wetter Wolken Druck Änderung Roh
VFR 3°C / 3°C variable 0kt >10km - Few Clouds 2200ft 1030 No Significant change LERI 020830Z 00000KT 9999 2000SE FEW022 03/03 Q1030 NOSIG
VFR 1°C / 0°C variable 0kt >10km - Few Clouds 2200ft 1030 No Significant change LERI 020800Z 00000KT 9999 2000S FEW022 01/M00 Q1030 NOSIG
MVFR 1°C / 1°C variable 0kt 8000m - Scattered Clouds 2300ft 1030 No Significant change LERI 020730Z 00000KT 8000 3900SW SCT023 01/01 Q1030 NOSIG
MVFR 1°C / 0°C variable 0kt 8000m - Scattered Clouds 2300ft 1030 No Significant change LERI 020700Z 00000KT 8000 3900SW SCT023 01/M00 Q1030 NOSIG
MVFR 1°C / 0°C variable 0kt 8000m - Broken Clouds 2300ft 1030 No Significant change LERI 020630Z 00000KT 8000 BKN023 01/M00 Q1030 NOSIG
MVFR 2°C / 1°C 300º 3kt 8000m - Broken Clouds 2500ft 1029 No Significant change LERI 020600Z 30003KT 8000 BKN025 02/01 Q1029 NOSIG
VFR 11°C / 3°C 120º 6kt >10km - Clouds and Visibility OK 1028 No Significant change LERI 011800Z 12006KT CAVOK 11/03 Q1028 NOSIG
VFR 12°C / 4°C 120º variable 090º to 150º 6kt >10km - Clouds and Visibility OK 1027 No Significant change LERI 011730Z 12006KT 090V150 CAVOK 12/04 Q1027 NOSIG
VFR 13°C / 4°C 120º 8kt >10km - Clouds and Visibility OK 1027 No Significant change LERI 011700Z 12008KT CAVOK 13/04 Q1027 NOSIG
VFR 15°C / 4°C 130º 8kt >10km - Few Clouds 6000ft 1027 No Significant change LERI 011630Z 13008KT 9999 FEW060 15/04 Q1027 NOSIG
VFR 15°C / 4°C 90º variable 040º to 140º 7kt >10km - Clouds and Visibility OK 1026 No Significant change LERI 011600Z 09007KT 040V140 CAVOK 15/04 Q1026 NOSIG
VFR 16°C / 2°C 60º variable 030º to 100º 7kt >10km - Clouds and Visibility OK 1026 No Significant change LERI 011530Z 06007KT 030V100 CAVOK 16/02 Q1026 NOSIG
VFR 16°C / 2°C 70º variable 360º to 100º 6kt Gust 16kt >10km - Clouds and Visibility OK 1026 No Significant change LERI 011500Z 07006G16KT 360V100 CAVOK 16/02 Q1026 NOSIG
VFR 15°C / 2°C 70º variable 030º to 110º 6kt >10km - Clouds and Visibility OK 1026 No Significant change LERI 011430Z 07006KT 030V110 CAVOK 15/02 Q1026 NOSIG
VFR 15°C / 2°C 60º variable 020º to 100º 5kt >10km - Clouds and Visibility OK 1027 No Significant change LERI 011400Z 06005KT 020V100 CAVOK 15/02 Q1027 NOSIG
VFR 15°C / 3°C 70º variable 360º to 150º 5kt >10km - Clouds and Visibility OK 1027 No Significant change LERI 011330Z 07005KT 360V150 CAVOK 15/03 Q1027 NOSIG
VFR 14°C / 3°C 70º variable 350º to 110º 5kt >10km - Clouds and Visibility OK 1028 No Significant change LERI 011300Z 07005KT 350V110 CAVOK 14/03 Q1028 NOSIG
VFR 14°C / 2°C 70º 2kt >10km - Few Clouds 6000ft 1028 No Significant change LERI 011230Z 07002KT 9999 FEW060 14/02 Q1028 NOSIG
VFR 12°C / 0°C variable 2kt >10km - Clouds and Visibility OK 1029 No Significant change LERI 011200Z VRB02KT CAVOK 12/M00 Q1029 NOSIG
VFR 11°C / -3°C variable 1kt >10km - Clouds and Visibility OK 1029 No Significant change LERI 011130Z VRB01KT CAVOK 11/M03 Q1029 NOSIG
VFR 10°C / -4°C 80º 1kt >10km - Clouds and Visibility OK 1030 No Significant change LERI 011100Z 08001KT CAVOK 10/M04 Q1030 NOSIG
VFR 9°C / -3°C variable 2kt >10km - Clouds and Visibility OK 1030 No Significant change LERI 011030Z VRB02KT CAVOK 09/M03 Q1030 NOSIG
VFR 8°C / -2°C variable 2kt >10km - Clouds and Visibility OK 1030 No Significant change LERI 011000Z VRB02KT CAVOK 08/M02 Q1030 NOSIG
VFR 5°C / -1°C variable 2kt >10km - Clouds and Visibility OK 1030 No Significant change LERI 010930Z VRB02KT CAVOK 05/M01 Q1030 NOSIG

VFR

3°C / 3°C

[Mehr]
Wind variable 0kt
Sichtweite >10km
Wetter -
Wolken Few Clouds 2200ft
Druck 1030
Änderung No Significant change
Roh LERI 020830Z 00000KT 9999 2000SE FEW022 03/03 Q1030 NOSIG

VFR

1°C / 0°C

[Mehr]
Wind variable 0kt
Sichtweite >10km
Wetter -
Wolken Few Clouds 2200ft
Druck 1030
Änderung No Significant change
Roh LERI 020800Z 00000KT 9999 2000S FEW022 01/M00 Q1030 NOSIG

MVFR

1°C / 1°C

[Mehr]
Wind variable 0kt
Sichtweite 8000m
Wetter -
Wolken Scattered Clouds 2300ft
Druck 1030
Änderung No Significant change
Roh LERI 020730Z 00000KT 8000 3900SW SCT023 01/01 Q1030 NOSIG

MVFR

1°C / 0°C

[Mehr]
Wind variable 0kt
Sichtweite 8000m
Wetter -
Wolken Scattered Clouds 2300ft
Druck 1030
Änderung No Significant change
Roh LERI 020700Z 00000KT 8000 3900SW SCT023 01/M00 Q1030 NOSIG

MVFR

1°C / 0°C

[Mehr]
Wind variable 0kt
Sichtweite 8000m
Wetter -
Wolken Broken Clouds 2300ft
Druck 1030
Änderung No Significant change
Roh LERI 020630Z 00000KT 8000 BKN023 01/M00 Q1030 NOSIG

MVFR

2°C / 1°C

[Mehr]
Wind 300º 3kt
Sichtweite 8000m
Wetter -
Wolken Broken Clouds 2500ft
Druck 1029
Änderung No Significant change
Roh LERI 020600Z 30003KT 8000 BKN025 02/01 Q1029 NOSIG

VFR

11°C / 3°C

[Mehr]
Wind 120º 6kt
Sichtweite >10km
Wetter -
Wolken Clouds and Visibility OK
Druck 1028
Änderung No Significant change
Roh LERI 011800Z 12006KT CAVOK 11/03 Q1028 NOSIG

VFR

12°C / 4°C

[Mehr]
Wind 120º variable 090º to 150º 6kt
Sichtweite >10km
Wetter -
Wolken Clouds and Visibility OK
Druck 1027
Änderung No Significant change
Roh LERI 011730Z 12006KT 090V150 CAVOK 12/04 Q1027 NOSIG

VFR

13°C / 4°C

[Mehr]
Wind 120º 8kt
Sichtweite >10km
Wetter -
Wolken Clouds and Visibility OK
Druck 1027
Änderung No Significant change
Roh LERI 011700Z 12008KT CAVOK 13/04 Q1027 NOSIG

VFR

15°C / 4°C

[Mehr]
Wind 130º 8kt
Sichtweite >10km
Wetter -
Wolken Few Clouds 6000ft
Druck 1027
Änderung No Significant change
Roh LERI 011630Z 13008KT 9999 FEW060 15/04 Q1027 NOSIG

VFR

15°C / 4°C

[Mehr]
Wind 90º variable 040º to 140º 7kt
Sichtweite >10km
Wetter -
Wolken Clouds and Visibility OK
Druck 1026
Änderung No Significant change
Roh LERI 011600Z 09007KT 040V140 CAVOK 15/04 Q1026 NOSIG

VFR

16°C / 2°C

[Mehr]
Wind 60º variable 030º to 100º 7kt
Sichtweite >10km
Wetter -
Wolken Clouds and Visibility OK
Druck 1026
Änderung No Significant change
Roh LERI 011530Z 06007KT 030V100 CAVOK 16/02 Q1026 NOSIG

VFR

16°C / 2°C

[Mehr]
Wind 70º variable 360º to 100º 6kt Gust 16kt
Sichtweite >10km
Wetter -
Wolken Clouds and Visibility OK
Druck 1026
Änderung No Significant change
Roh LERI 011500Z 07006G16KT 360V100 CAVOK 16/02 Q1026 NOSIG

VFR

15°C / 2°C

[Mehr]
Wind 70º variable 030º to 110º 6kt
Sichtweite >10km
Wetter -
Wolken Clouds and Visibility OK
Druck 1026
Änderung No Significant change
Roh LERI 011430Z 07006KT 030V110 CAVOK 15/02 Q1026 NOSIG

VFR

15°C / 2°C

[Mehr]
Wind 60º variable 020º to 100º 5kt
Sichtweite >10km
Wetter -
Wolken Clouds and Visibility OK
Druck 1027
Änderung No Significant change
Roh LERI 011400Z 06005KT 020V100 CAVOK 15/02 Q1027 NOSIG

VFR

15°C / 3°C

[Mehr]
Wind 70º variable 360º to 150º 5kt
Sichtweite >10km
Wetter -
Wolken Clouds and Visibility OK
Druck 1027
Änderung No Significant change
Roh LERI 011330Z 07005KT 360V150 CAVOK 15/03 Q1027 NOSIG

VFR

14°C / 3°C

[Mehr]
Wind 70º variable 350º to 110º 5kt
Sichtweite >10km
Wetter -
Wolken Clouds and Visibility OK
Druck 1028
Änderung No Significant change
Roh LERI 011300Z 07005KT 350V110 CAVOK 14/03 Q1028 NOSIG

VFR

14°C / 2°C

[Mehr]
Wind 70º 2kt
Sichtweite >10km
Wetter -
Wolken Few Clouds 6000ft
Druck 1028
Änderung No Significant change
Roh LERI 011230Z 07002KT 9999 FEW060 14/02 Q1028 NOSIG

VFR

12°C / 0°C

[Mehr]
Wind variable 2kt
Sichtweite >10km
Wetter -
Wolken Clouds and Visibility OK
Druck 1029
Änderung No Significant change
Roh LERI 011200Z VRB02KT CAVOK 12/M00 Q1029 NOSIG

VFR

11°C / -3°C

[Mehr]
Wind variable 1kt
Sichtweite >10km
Wetter -
Wolken Clouds and Visibility OK
Druck 1029
Änderung No Significant change
Roh LERI 011130Z VRB01KT CAVOK 11/M03 Q1029 NOSIG

VFR

10°C / -4°C

[Mehr]
Wind 80º 1kt
Sichtweite >10km
Wetter -
Wolken Clouds and Visibility OK
Druck 1030
Änderung No Significant change
Roh LERI 011100Z 08001KT CAVOK 10/M04 Q1030 NOSIG

VFR

9°C / -3°C

[Mehr]
Wind variable 2kt
Sichtweite >10km
Wetter -
Wolken Clouds and Visibility OK
Druck 1030
Änderung No Significant change
Roh LERI 011030Z VRB02KT CAVOK 09/M03 Q1030 NOSIG

VFR

8°C / -2°C

[Mehr]
Wind variable 2kt
Sichtweite >10km
Wetter -
Wolken Clouds and Visibility OK
Druck 1030
Änderung No Significant change
Roh LERI 011000Z VRB02KT CAVOK 08/M02 Q1030 NOSIG

VFR

5°C / -1°C

[Mehr]
Wind variable 2kt
Sichtweite >10km
Wetter -
Wolken Clouds and Visibility OK
Druck 1030
Änderung No Significant change
Roh LERI 010930Z VRB02KT CAVOK 05/M01 Q1030 NOSIG

TAF für Alcantarilla (LERI)

From till


Maximum Temperature 16ºC on . Minimum Temperature 0ºC on .
From till Wind variable 3kt. Visibility 10km or more. Scattered Clouds 2000ft.
With 30% probability, Temporarly from till Visibility 4000m. Mist .

Roh: TAF AMD LERI 020742Z 0207/0306 VRB03KT 9999 SCT020 TX16/0214Z TN00/0306Z PROB30 TEMPO 0207/0210 4000 BR

Radar- und Niederschlags-Nowcast für Alcantarilla

Nieselregen
Leicht
Moderat
Stark
Sehr schwer
Hagel

Die Ortsmarkierung zeigt auf Alcantarilla. Diese Animation zeigt das Niederschlagsradar der letzten 1 Stunde. Nieselregen und leichter Schneefall können für das Radar unsichtbar sein. Die Niederschlagsintensität ist farbcodiert von Hellblau bis Orange.
Radardatenquelle: AEMET.

Aktuelle Satelliten- und Regenbilder für Alcantarilla, Spanien

Die Standortmarkierung ist platziert auf Alcantarilla. [Mehr]

Das Echtzeit-Satellitenbild kombiniert sichtbares Licht während des Tages mit Infrarotstrahlung während der Nacht. Nachts ist das Bild nicht dunkel, da Infrarotstrahlung Temperaturunterschiede erkennen kann. Leider sind niedrige Wolken und Nebel nur schwer von den Bodentemperaturen zu unterscheiden und können daher nachts fast unsichtbar sein. Meteosat-Satellitenbilder für Europa werden alle 5 Minuten in Echtzeit aktualisiert. Die Bilder GOES-16 / GOES-17 (Nord- und Südamerika) und Himawari (Asien) werden alle 10 Minuten aktualisiert.

Niederschläge werden von Radar und Satelliten berechnet. Nachts sind die Niederschlagsberechnungen durch die Satelliten weniger genau als tagsüber. Orangene Kreuze markieren Stellen, an denen Blitze aufgenommen wurden (über Europa).

Copyright 2023 EUMETSAT / meteoblue. Blitzdaten zur Verfügung gestellt von nowcast.

Zum Anfang